createdAt,value
2019-04-11T00:08:56.561Z,6.92
2019-04-11T00:19:19.464Z,8.15
2019-04-11T00:29:42.739Z,8.25
2019-04-11T00:40:06.833Z,7.95
2019-04-11T00:50:31.626Z,8.20
2019-04-11T01:00:55.575Z,6.85
2019-04-11T01:11:19.466Z,12.45
2019-04-11T01:21:42.432Z,9.58
2019-04-11T01:32:08.380Z,8.93
2019-04-11T01:42:33.469Z,8.95
2019-04-11T01:52:58.352Z,10.55
2019-04-11T02:03:35.053Z,9.00
2019-04-11T02:14:08.026Z,8.95
2019-04-11T02:24:37.914Z,11.35
2019-04-11T02:35:02.484Z,8.40
2019-04-11T02:45:42.328Z,10.60
2019-04-11T02:55:52.022Z,8.90
2019-04-11T03:06:17.549Z,8.75
2019-04-11T03:16:51.707Z,8.23
2019-04-11T03:27:07.737Z,9.75
2019-04-11T03:37:55.148Z,9.30
2019-04-11T03:48:10.428Z,11.15
2019-04-11T03:58:21.823Z,11.75
2019-04-11T04:08:46.647Z,10.38
2019-04-11T04:19:32.833Z,11.15
2019-04-11T04:29:58.442Z,9.00
2019-04-11T04:40:40.285Z,12.35
2019-04-11T04:50:45.419Z,10.82
2019-04-11T05:01:10.012Z,12.10
2019-04-11T05:11:33.991Z,16.82
2019-04-11T05:21:58.019Z,10.43
2019-04-11T05:32:21.923Z,15.95
2019-04-11T05:42:50.041Z,15.65
2019-04-11T05:53:10.502Z,12.65
2019-04-11T06:03:34.407Z,14.85
2019-04-11T06:14:07.382Z,14.90
2019-04-11T06:24:54.001Z,17.98
2019-04-11T06:35:40.107Z,12.68
2019-04-11T06:46:21.859Z,14.55
2019-04-11T06:56:47.475Z,14.83
2019-04-11T07:07:12.982Z,12.75
2019-04-11T07:17:54.851Z,11.05
2019-04-11T07:28:33.730Z,9.93
2019-04-11T07:39:03.196Z,13.35
2019-04-11T07:49:32.911Z,14.83
2019-04-11T08:00:15.070Z,18.90
2019-04-11T08:10:46.641Z,11.00
2019-04-11T08:21:48.313Z,13.30
2019-04-11T08:32:29.615Z,11.00
2019-04-11T08:43:06.700Z,11.78
2019-04-11T08:53:57.888Z,9.23
2019-04-11T09:04:43.818Z,8.50
2019-04-11T09:15:26.870Z,7.87
2019-04-11T09:26:08.034Z,10.03
2019-04-11T09:47:17.936Z,7.83
2019-04-11T09:57:44.155Z,11.17
2019-04-11T10:08:23.026Z,6.95
2019-04-11T10:19:08.386Z,7.92
2019-04-11T10:29:50.571Z,8.03
2019-04-11T10:40:42.475Z,10.55
2019-04-11T10:51:20.731Z,6.90
2019-04-11T11:02:00.390Z,6.45
2019-04-11T11:12:35.130Z,8.60
2019-04-11T11:23:29.379Z,7.17
2019-04-11T11:33:52.182Z,8.40
2019-04-11T11:44:15.963Z,10.85
2019-04-11T11:54:43.878Z,17.32
2019-04-11T12:05:16.222Z,8.15
2019-04-11T12:16:05.991Z,8.13
2019-04-11T12:26:33.212Z,12.98
2019-04-11T12:36:56.358Z,7.33
2019-04-11T12:47:45.075Z,13.90
2019-04-11T12:58:31.660Z,7.12
2019-04-11T13:09:12.930Z,8.90
2019-04-11T13:20:04.922Z,6.47
2019-04-11T13:30:49.142Z,6.10
2019-04-11T13:41:34.907Z,10.78
2019-04-11T13:52:29.249Z,7.05
2019-04-11T14:03:06.336Z,6.55
2019-04-11T14:13:37.443Z,12.10
2019-04-11T14:24:25.935Z,10.15
2019-04-11T14:35:00.905Z,7.15
2019-04-11T14:45:36.576Z,8.90
2019-04-11T14:56:04.562Z,13.90
2019-04-11T15:06:31.581Z,6.87
2019-04-11T15:17:11.328Z,5.70
2019-04-11T15:28:03.246Z,5.23
2019-04-11T15:38:44.032Z,5.08
2019-04-11T15:49:33.920Z,4.17
2019-04-11T16:00:28.443Z,7.47
2019-04-11T16:11:03.135Z,6.58
2019-04-11T16:21:35.582Z,6.53
2019-04-11T16:32:02.023Z,4.90
2019-04-11T16:42:54.293Z,4.28
2019-04-11T16:53:13.413Z,4.85
2019-04-11T17:03:36.335Z,3.95
2019-04-11T17:13:59.182Z,3.72
2019-04-11T17:24:22.557Z,3.08
2019-04-11T17:34:45.468Z,2.85
2019-04-11T17:45:08.370Z,3.83
2019-04-11T17:55:31.360Z,2.50
2019-04-11T18:05:54.762Z,3.67
2019-04-11T18:16:17.515Z,3.08
2019-04-11T18:26:40.301Z,4.55
2019-04-11T18:37:03.756Z,4.03
2019-04-11T18:47:26.562Z,2.70
2019-04-11T18:57:49.463Z,2.35
2019-04-11T19:08:13.146Z,3.10
2019-04-11T19:18:36.630Z,2.37
2019-04-11T19:29:00.335Z,4.25
2019-04-11T19:39:23.986Z,3.90
2019-04-11T19:49:46.382Z,3.22
2019-04-11T20:00:10.883Z,3.02
2019-04-11T20:10:33.479Z,2.52
2019-04-11T20:20:56.118Z,3.22
2019-04-11T20:31:19.060Z,2.33
2019-04-11T20:41:41.979Z,3.77
2019-04-11T20:52:04.847Z,2.83
2019-04-11T21:02:29.114Z,2.70
2019-04-11T21:12:52.730Z,3.72
2019-04-11T21:23:24.389Z,2.67
2019-04-11T21:33:40.175Z,2.30
2019-04-11T21:44:05.852Z,2.50
2019-04-11T21:54:27.449Z,3.05
2019-04-11T22:04:50.329Z,3.25
2019-04-11T22:15:13.618Z,2.20
2019-04-11T22:25:37.238Z,1.90
2019-04-11T22:36:00.196Z,1.92
2019-04-11T22:46:24.746Z,1.92
2019-04-11T22:56:47.959Z,1.92
2019-04-11T23:07:12.000Z,2.17
2019-04-11T23:17:34.850Z,2.77
2019-04-11T23:27:57.572Z,3.35
2019-04-11T23:38:23.544Z,14.28
2019-04-11T23:48:45.358Z,3.52
2019-04-11T23:59:08.417Z,6.45
